createdAt,value
2018-11-29T00:01:31.756Z,-3.81
2018-11-29T00:04:01.871Z,-3.78
2018-11-29T00:06:32.939Z,-3.75
2018-11-29T00:09:03.867Z,-3.74
2018-11-29T00:11:34.406Z,-3.73
2018-11-29T00:14:05.457Z,-3.77
2018-11-29T00:16:35.898Z,-3.78
2018-11-29T00:19:06.636Z,-3.78
2018-11-29T00:21:36.821Z,-3.77
2018-11-29T00:24:08.012Z,-3.77
2018-11-29T00:26:38.999Z,-3.76
2018-11-29T00:29:09.793Z,-3.78
2018-11-29T00:31:43.708Z,-3.76
2018-11-29T00:34:13.885Z,-3.75
2018-11-29T00:36:45.104Z,-3.79
2018-11-29T00:39:16.027Z,-3.81
2018-11-29T00:41:49.042Z,-3.81
2018-11-29T00:44:20.031Z,-3.83
2018-11-29T00:46:52.978Z,-3.82
2018-11-29T00:49:23.107Z,-3.82
2018-11-29T00:51:54.211Z,-3.83
2018-11-29T00:54:29.294Z,-3.85
2018-11-29T00:57:01.147Z,-3.85
2018-11-29T00:59:31.966Z,-3.86
2018-11-29T01:02:02.459Z,-3.90
2018-11-29T01:04:33.058Z,-3.91
2018-11-29T01:07:03.264Z,-3.93
2018-11-29T01:09:34.330Z,-3.96
2018-11-29T01:12:05.105Z,-3.98
2018-11-29T01:14:35.158Z,-4.00
2018-11-29T01:17:09.104Z,-4.04
2018-11-29T01:19:40.187Z,-4.07
2018-11-29T01:22:10.226Z,-4.09
2018-11-29T01:24:41.274Z,-4.13
2018-11-29T01:27:14.248Z,-4.14
2018-11-29T01:29:44.275Z,-4.14
2018-11-29T01:32:15.113Z,-4.15
2018-11-29T01:34:48.312Z,-4.20
2018-11-29T01:37:23.459Z,-4.22
2018-11-29T01:39:54.246Z,-4.26
2018-11-29T01:42:26.434Z,-4.22
2018-11-29T01:44:58.400Z,-4.23
2018-11-29T01:47:29.317Z,-4.21
2018-11-29T01:50:00.124Z,-4.20
2018-11-29T01:52:30.612Z,-4.18
2018-11-29T01:55:01.110Z,-4.16
2018-11-29T01:57:31.593Z,-4.16
2018-11-29T02:00:02.218Z,-4.18
2018-11-29T02:02:32.768Z,-4.18
2018-11-29T02:05:03.514Z,-4.08
2018-11-29T02:07:34.070Z,-4.09
2018-11-29T02:10:10.232Z,-4.15
2018-11-29T02:12:41.474Z,-4.20
2018-11-29T02:15:19.559Z,-4.17
2018-11-29T02:17:51.844Z,-4.19
2018-11-29T02:20:22.062Z,-4.21
2018-11-29T02:22:52.457Z,-4.21
2018-11-29T02:25:29.232Z,-4.21
2018-11-29T02:28:00.631Z,-4.20
2018-11-29T02:30:31.683Z,-4.25
2018-11-29T02:33:04.524Z,-4.28
2018-11-29T02:35:35.596Z,-4.29
2018-11-29T02:38:08.572Z,-4.28
2018-11-29T02:40:39.541Z,-4.28
2018-11-29T02:43:10.700Z,-4.29
2018-11-29T02:45:41.548Z,-4.28
2018-11-29T02:48:14.630Z,-4.29
2018-11-29T02:50:46.084Z,-4.31
2018-11-29T02:53:16.556Z,-4.33
2018-11-29T02:55:50.409Z,-4.36
2018-11-29T02:58:20.586Z,-4.34
2018-11-29T03:00:54.516Z,-4.36
2018-11-29T03:03:26.762Z,-4.39
2018-11-29T03:05:58.722Z,-4.39
2018-11-29T03:08:32.642Z,-4.45
2018-11-29T03:11:05.957Z,-4.48
2018-11-29T03:13:36.637Z,-4.56
2018-11-29T03:16:07.227Z,-4.60
2018-11-29T03:18:43.569Z,-4.61
2018-11-29T03:21:14.906Z,-4.63
2018-11-29T03:23:47.634Z,-4.67
2018-11-29T03:26:18.755Z,-4.72
2018-11-29T03:28:49.696Z,-4.75
2018-11-29T03:31:19.846Z,-4.76
2018-11-29T03:33:56.684Z,-4.74
2018-11-29T03:36:26.700Z,-4.67
2018-11-29T03:39:03.994Z,-4.67
2018-11-29T03:41:34.974Z,-4.74
2018-11-29T03:44:05.939Z,-4.77
2018-11-29T03:46:38.894Z,-4.82
2018-11-29T03:49:09.898Z,-4.82
2018-11-29T03:51:41.097Z,-4.81
2018-11-29T03:54:11.930Z,-4.82
2018-11-29T03:56:48.534Z,-4.88
2018-11-29T03:59:19.475Z,-4.88
2018-11-29T04:01:55.897Z,-4.92
2018-11-29T04:04:26.909Z,-4.95
2018-11-29T04:06:58.025Z,-4.92
2018-11-29T04:09:30.972Z,-4.89
2018-11-29T04:12:01.933Z,-4.92
2018-11-29T04:14:34.950Z,-4.92
2018-11-29T04:17:11.733Z,-4.92
2018-11-29T04:19:42.024Z,-4.87
2018-11-29T04:22:12.958Z,-4.84
2018-11-29T04:24:43.051Z,-4.74
2018-11-29T04:27:13.892Z,-4.70
2018-11-29T04:29:46.761Z,-4.78
2018-11-29T04:32:18.034Z,-4.85
2018-11-29T04:34:49.099Z,-4.91
2018-11-29T04:37:19.145Z,-4.85
2018-11-29T04:39:50.103Z,-4.83
2018-11-29T04:42:20.235Z,-4.91
2018-11-29T04:44:50.963Z,-4.93
2018-11-29T04:47:21.023Z,-4.94
2018-11-29T04:49:53.507Z,-4.93
2018-11-29T04:52:24.362Z,-4.93
2018-11-29T04:54:54.925Z,-4.92
2018-11-29T04:57:27.104Z,-4.95
2018-11-29T04:59:59.060Z,-4.97
2018-11-29T05:02:30.194Z,-4.95
2018-11-29T05:05:01.234Z,-4.90
2018-11-29T05:07:34.308Z,-4.91
2018-11-29T05:10:05.977Z,-4.99
2018-11-29T05:12:36.110Z,-4.96
2018-11-29T05:15:08.440Z,-4.85
2018-11-29T05:17:39.985Z,-4.83
2018-11-29T05:20:10.310Z,-4.72
2018-11-29T05:22:47.200Z,-4.72
2018-11-29T05:25:19.206Z,-4.59
2018-11-29T05:27:51.269Z,-4.53
2018-11-29T05:30:21.375Z,-4.56
2018-11-29T05:32:52.255Z,-4.63
2018-11-29T05:35:24.191Z,-4.64
2018-11-29T05:37:54.276Z,-4.70
2018-11-29T05:40:24.596Z,-4.65
2018-11-29T05:42:55.552Z,-4.71
2018-11-29T05:45:26.537Z,-4.79
2018-11-29T05:47:56.696Z,-4.86
2018-11-29T05:50:29.491Z,-4.87
2018-11-29T05:53:01.487Z,-4.83
2018-11-29T05:55:35.689Z,-4.88
2018-11-29T05:58:06.227Z,-4.87
2018-11-29T06:00:36.575Z,-4.90
2018-11-29T06:03:07.196Z,-4.91
2018-11-29T06:05:39.477Z,-4.94
2018-11-29T06:08:08.519Z,-4.94
2018-11-29T06:10:42.293Z,-4.99
2018-11-29T06:13:14.162Z,-4.98
2018-11-29T06:15:44.699Z,-4.96
2018-11-29T06:18:20.729Z,-4.97
2018-11-29T06:20:57.423Z,-5.01
2018-11-29T06:23:28.097Z,-5.06
2018-11-29T06:25:58.708Z,-5.04
2018-11-29T06:28:29.277Z,-5.02
2018-11-29T06:31:02.343Z,-5.02
2018-11-29T06:33:35.027Z,-4.96
2018-11-29T06:36:06.555Z,-4.94
2018-11-29T06:38:37.680Z,-4.95
2018-11-29T06:41:10.785Z,-4.97
2018-11-29T06:43:41.694Z,-4.94
2018-11-29T06:46:12.518Z,-4.95
2018-11-29T06:48:42.670Z,-4.92
2018-11-29T06:51:13.703Z,-4.88
2018-11-29T06:53:51.823Z,-4.84
2018-11-29T06:56:26.626Z,-4.78
2018-11-29T06:58:57.831Z,-4.70
2018-11-29T07:01:28.818Z,-4.66
2018-11-29T07:04:05.940Z,-4.60
2018-11-29T07:06:44.792Z,-4.54
2018-11-29T07:09:20.426Z,-4.51
2018-11-29T07:11:50.829Z,-4.48
2018-11-29T07:14:21.143Z,-4.47
2018-11-29T07:16:53.876Z,-4.38
2018-11-29T07:19:28.125Z,-4.36
2018-11-29T07:21:58.778Z,-4.32
2018-11-29T07:24:29.735Z,-4.33
2018-11-29T07:26:59.847Z,-4.31
2018-11-29T07:29:30.652Z,-4.24
2018-11-29T07:32:00.818Z,-4.20
2018-11-29T07:34:31.310Z,-4.16
2018-11-29T07:37:02.095Z,-4.09
2018-11-29T07:39:32.803Z,-3.99
2018-11-29T07:42:03.919Z,-3.96
2018-11-29T07:44:35.201Z,-3.91
2018-11-29T07:47:05.483Z,-3.89
2018-11-29T07:49:35.726Z,-3.82
2018-11-29T07:52:06.289Z,-3.66
2018-11-29T07:54:36.914Z,-3.63
2018-11-29T07:57:07.230Z,-3.48
2018-11-29T07:59:38.353Z,-3.43
2018-11-29T08:02:09.238Z,-3.43
2018-11-29T08:04:40.192Z,-3.36
2018-11-29T08:07:10.642Z,-3.31
2018-11-29T08:09:41.241Z,-3.29
2018-11-29T08:12:11.691Z,-3.22
2018-11-29T08:14:42.206Z,-3.17
2018-11-29T08:17:13.172Z,-3.08
2018-11-29T08:19:44.104Z,-2.96
2018-11-29T08:22:15.103Z,-2.92
2018-11-29T08:24:45.897Z,-2.86
2018-11-29T08:27:16.227Z,-2.72
2018-11-29T08:29:47.136Z,-2.81
2018-11-29T08:32:17.789Z,-2.90
2018-11-29T08:34:48.383Z,-2.70
2018-11-29T08:37:18.945Z,-2.60
2018-11-29T08:39:49.175Z,-2.42
2018-11-29T08:42:20.021Z,-2.54
2018-11-29T08:44:50.307Z,-2.36
2018-11-29T08:47:20.644Z,-2.36
2018-11-29T08:49:51.824Z,-2.30
2018-11-29T08:52:22.145Z,-2.22
2018-11-29T08:54:52.844Z,-2.32
2018-11-29T08:57:23.470Z,-2.32
2018-11-29T08:59:54.245Z,-2.20
2018-11-29T09:02:24.758Z,-2.07
2018-11-29T09:04:55.492Z,-2.04
2018-11-29T09:07:25.993Z,-2.04
2018-11-29T09:09:56.935Z,-1.79
2018-11-29T09:12:27.370Z,-1.62
2018-11-29T09:14:58.344Z,-1.50
2018-11-29T09:17:29.264Z,-1.39
2018-11-29T09:19:59.374Z,-1.25
2018-11-29T09:22:36.174Z,-1.10
2018-11-29T09:25:10.405Z,-1.07
2018-11-29T09:27:41.469Z,-1.13
2018-11-29T09:30:16.523Z,-1.15
2018-11-29T09:32:50.003Z,-0.99
2018-11-29T09:35:20.854Z,-0.90
2018-11-29T09:37:58.184Z,-0.89
2018-11-29T09:40:30.768Z,-0.89
2018-11-29T09:43:03.471Z,-0.71
2018-11-29T09:45:39.247Z,-0.84
2018-11-29T09:48:10.611Z,-0.88
2018-11-29T09:50:44.141Z,-1.00
2018-11-29T09:53:14.653Z,-0.89
2018-11-29T09:55:45.374Z,-0.70
2018-11-29T09:58:18.351Z,-0.76
2018-11-29T10:00:49.524Z,-0.76
2018-11-29T10:03:20.708Z,-0.92
2018-11-29T10:05:56.947Z,-1.09
2018-11-29T10:08:27.657Z,-1.11
2018-11-29T10:10:58.404Z,-1.13
2018-11-29T10:13:29.016Z,-1.09
2018-11-29T10:15:59.647Z,-1.16
2018-11-29T10:18:30.413Z,-1.10
2018-11-29T10:21:00.507Z,-1.08
2018-11-29T10:23:30.565Z,-1.13
2018-11-29T10:26:02.771Z,-1.10
2018-11-29T10:28:33.884Z,-1.07
2018-11-29T10:31:05.196Z,-1.09
2018-11-29T10:33:35.267Z,-1.06
2018-11-29T10:36:06.157Z,-1.09
2018-11-29T10:38:36.988Z,-1.23
2018-11-29T10:41:07.573Z,-0.92
2018-11-29T10:43:37.779Z,-0.86
2018-11-29T10:46:08.523Z,-0.91
2018-11-29T10:48:38.647Z,-0.78
2018-11-29T10:51:09.856Z,-0.79
2018-11-29T10:53:40.037Z,-0.83
2018-11-29T10:56:10.720Z,-0.67
2018-11-29T10:58:41.404Z,-0.63
2018-11-29T11:01:16.976Z,-0.57
2018-11-29T11:03:51.704Z,-0.54
2018-11-29T11:06:23.680Z,-0.53
2018-11-29T11:08:55.915Z,-0.56
2018-11-29T11:11:27.171Z,-0.61
2018-11-29T11:13:59.930Z,-0.49
2018-11-29T11:16:30.627Z,-0.52
2018-11-29T11:19:00.887Z,-0.45
2018-11-29T11:21:31.905Z,-0.41
2018-11-29T11:24:02.682Z,-0.39
2018-11-29T11:26:33.467Z,-0.36
2018-11-29T11:29:03.870Z,-0.25
2018-11-29T11:31:35.131Z,-0.23
2018-11-29T11:34:06.091Z,-0.27
2018-11-29T11:36:36.167Z,-0.33
2018-11-29T11:39:08.386Z,-0.26
2018-11-29T11:41:38.819Z,-0.27
2018-11-29T11:44:09.460Z,-0.22
2018-11-29T11:46:39.808Z,-0.20
2018-11-29T11:49:10.215Z,-0.18
2018-11-29T11:51:40.935Z,-0.12
2018-11-29T11:54:11.126Z,-0.17
2018-11-29T11:56:44.869Z,-0.12
2018-11-29T11:59:15.002Z,-0.12
2018-11-29T12:01:45.980Z,0.06
2018-11-29T12:04:17.143Z,0.05
2018-11-29T12:06:49.852Z,0.09
2018-11-29T12:09:21.156Z,0.10
2018-11-29T12:11:54.192Z,0.12
2018-11-29T12:14:30.986Z,0.21
2018-11-29T12:17:01.707Z,0.12
2018-11-29T12:19:32.354Z,0.16
2018-11-29T12:22:03.387Z,0.18
2018-11-29T12:24:33.911Z,0.20
2018-11-29T12:27:04.872Z,0.17
2018-11-29T12:29:35.253Z,0.24
2018-11-29T12:32:06.853Z,0.29
2018-11-29T12:34:36.918Z,0.39
2018-11-29T12:37:07.316Z,0.39
2018-11-29T12:39:42.513Z,0.34
2018-11-29T12:42:15.443Z,0.33
2018-11-29T12:44:46.328Z,0.34
2018-11-29T12:47:16.430Z,0.39
2018-11-29T12:49:47.271Z,0.46
2018-11-29T12:52:18.415Z,0.47
2018-11-29T12:54:49.369Z,0.39
2018-11-29T12:57:21.049Z,0.45
2018-11-29T12:59:53.282Z,0.46
2018-11-29T13:02:24.234Z,0.47
2018-11-29T13:04:57.321Z,0.53
2018-11-29T13:07:27.379Z,0.54
2018-11-29T13:09:58.251Z,0.49
2018-11-29T13:12:30.551Z,0.55
2018-11-29T13:15:14.661Z,0.57
2018-11-29T13:17:45.422Z,0.53
2018-11-29T13:20:18.647Z,0.66
2018-11-29T13:22:49.897Z,0.60
2018-11-29T13:25:21.204Z,0.57
2018-11-29T13:27:53.560Z,0.58
2018-11-29T13:30:25.027Z,0.63
2018-11-29T13:32:57.999Z,0.63
2018-11-29T13:35:34.790Z,0.71
2018-11-29T13:38:10.202Z,0.75
2018-11-29T13:40:44.389Z,0.75
2018-11-29T13:43:17.637Z,0.80
2018-11-29T13:45:53.571Z,0.68
2018-11-29T13:48:25.017Z,0.73
2018-11-29T13:50:55.476Z,0.73
2018-11-29T13:53:26.269Z,0.76
2018-11-29T13:55:57.746Z,0.76
2018-11-29T13:58:29.021Z,0.74
2018-11-29T14:00:59.399Z,0.75
2018-11-29T14:03:29.990Z,0.77
2018-11-29T14:06:00.131Z,0.70
2018-11-29T14:08:30.732Z,0.72
2018-11-29T14:11:01.169Z,0.69
2018-11-29T14:13:31.545Z,0.66
2018-11-29T14:16:01.978Z,0.66
2018-11-29T14:18:32.487Z,0.66
2018-11-29T14:21:02.827Z,0.65
2018-11-29T14:23:34.380Z,0.59
2018-11-29T14:26:06.295Z,0.56
2018-11-29T14:28:37.856Z,0.53
2018-11-29T14:31:13.807Z,0.48
2018-11-29T14:33:47.716Z,0.45
2018-11-29T14:36:18.164Z,0.35
2018-11-29T14:38:48.850Z,0.29
2018-11-29T14:41:21.720Z,0.30
2018-11-29T14:43:51.880Z,0.27
2018-11-29T14:46:26.555Z,0.22
2018-11-29T14:48:56.772Z,0.22
2018-11-29T14:51:33.315Z,0.16
2018-11-29T14:54:05.279Z,0.10
2018-11-29T14:56:37.828Z,0.07
2018-11-29T14:59:09.146Z,0.03
2018-11-29T15:01:39.934Z,0.02
2018-11-29T15:04:10.025Z,0.06
2018-11-29T15:06:44.078Z,-0.01
2018-11-29T15:09:14.923Z,0.02
2018-11-29T15:11:45.798Z,-0.05
2018-11-29T15:14:17.947Z,-0.08
2018-11-29T15:16:47.455Z,-0.15
2018-11-29T15:19:17.630Z,-0.15
2018-11-29T15:21:48.152Z,-0.15
2018-11-29T15:24:18.373Z,-0.18
2018-11-29T15:26:48.995Z,-0.21
2018-11-29T15:29:20.339Z,-0.24
2018-11-29T15:31:53.130Z,-0.18
2018-11-29T15:34:24.649Z,-0.30
2018-11-29T15:36:56.657Z,-0.31
2018-11-29T15:39:27.896Z,-0.33
2018-11-29T15:42:00.832Z,-0.32
2018-11-29T15:44:37.547Z,-0.35
2018-11-29T15:47:07.906Z,-0.41
2018-11-29T15:49:38.778Z,-0.42
2018-11-29T15:52:08.920Z,-0.41
2018-11-29T15:54:39.912Z,-0.41
2018-11-29T15:57:11.452Z,-0.37
2018-11-29T15:59:41.606Z,-0.47
2018-11-29T16:02:12.357Z,-0.53
2018-11-29T16:04:42.500Z,-0.49
2018-11-29T16:07:12.859Z,-0.57
2018-11-29T16:09:43.626Z,-0.61
2018-11-29T16:12:14.000Z,-0.58
2018-11-29T16:14:44.880Z,-0.63
2018-11-29T16:17:15.021Z,-0.67
2018-11-29T16:19:45.876Z,-0.69
2018-11-29T16:22:17.342Z,-0.68
2018-11-29T16:24:47.650Z,-0.77
2018-11-29T16:27:17.831Z,-0.74
2018-11-29T16:29:49.935Z,-0.72
2018-11-29T16:32:21.860Z,-0.78
2018-11-29T16:34:54.865Z,-0.77
2018-11-29T16:37:26.950Z,-0.78
2018-11-29T16:39:58.073Z,-0.81
2018-11-29T16:42:28.308Z,-0.85
2018-11-29T16:44:58.448Z,-0.86
2018-11-29T16:47:28.573Z,-0.91
2018-11-29T16:49:59.167Z,-0.92
2018-11-29T16:52:29.257Z,-0.93
2018-11-29T16:55:08.013Z,-0.96
2018-11-29T16:57:40.906Z,-0.96
2018-11-29T17:00:16.672Z,-1.00
2018-11-29T17:02:47.081Z,-1.01
2018-11-29T17:05:17.207Z,-0.96
2018-11-29T17:07:53.960Z,-1.03
2018-11-29T17:10:25.007Z,-1.03
2018-11-29T17:12:56.864Z,-1.11
2018-11-29T17:15:28.124Z,-1.03
2018-11-29T17:17:59.211Z,-1.04
2018-11-29T17:20:30.468Z,-1.17
2018-11-29T17:23:00.556Z,-1.13
2018-11-29T17:25:31.417Z,-1.12
2018-11-29T17:28:01.915Z,-1.14
2018-11-29T17:30:32.726Z,-1.21
2018-11-29T17:33:03.392Z,-1.27
2018-11-29T17:35:34.149Z,-1.30
2018-11-29T17:38:05.030Z,-1.23
2018-11-29T17:40:36.128Z,-1.29
2018-11-29T17:43:07.293Z,-1.30
2018-11-29T17:45:37.576Z,-1.29
2018-11-29T17:48:10.308Z,-1.26
2018-11-29T17:50:43.722Z,-1.36
2018-11-29T17:53:15.282Z,-1.35
2018-11-29T17:55:49.581Z,-1.36
2018-11-29T17:58:21.672Z,-1.37
2018-11-29T18:00:52.837Z,-1.43
2018-11-29T18:03:24.474Z,-1.43
2018-11-29T18:05:56.286Z,-1.47
2018-11-29T18:08:26.962Z,-1.54
2018-11-29T18:10:58.478Z,-1.48
2018-11-29T18:13:33.808Z,-1.46
2018-11-29T18:16:04.609Z,-1.48
2018-11-29T18:18:37.485Z,-1.46
2018-11-29T18:21:09.014Z,-1.42
2018-11-29T18:23:39.384Z,-1.47
2018-11-29T18:26:09.501Z,-1.47
2018-11-29T18:28:40.538Z,-1.48
2018-11-29T18:31:16.682Z,-1.45
2018-11-29T18:33:47.213Z,-1.49
2018-11-29T18:36:17.527Z,-1.51
2018-11-29T18:38:48.256Z,-1.56
2018-11-29T18:41:18.521Z,-1.58
2018-11-29T18:43:49.467Z,-1.64
2018-11-29T18:46:20.027Z,-1.62
2018-11-29T18:48:50.730Z,-1.63
2018-11-29T18:51:21.536Z,-1.65
2018-11-29T18:53:51.583Z,-1.64
2018-11-29T18:56:22.576Z,-1.68
2018-11-29T18:58:53.468Z,-1.67
2018-11-29T19:01:24.129Z,-1.66
2018-11-29T19:03:54.619Z,-1.67
2018-11-29T19:06:25.383Z,-1.73
2018-11-29T19:08:55.733Z,-1.80
2018-11-29T19:11:26.689Z,-1.76
2018-11-29T19:13:57.313Z,-1.75
2018-11-29T19:16:27.927Z,-1.74
2018-11-29T19:18:58.436Z,-1.83
2018-11-29T19:21:28.703Z,-1.86
2018-11-29T19:23:59.324Z,-1.84
2018-11-29T19:26:29.693Z,-1.78
2018-11-29T19:29:00.208Z,-1.80
2018-11-29T19:31:30.628Z,-1.78
2018-11-29T19:34:01.565Z,-1.82
2018-11-29T19:36:31.646Z,-1.87
2018-11-29T19:39:01.806Z,-1.86
2018-11-29T19:41:32.468Z,-1.81
2018-11-29T19:44:02.791Z,-1.85
2018-11-29T19:46:33.379Z,-1.88
2018-11-29T19:49:03.879Z,-1.90
2018-11-29T19:51:34.710Z,-1.92
2018-11-29T19:54:05.033Z,-1.89
2018-11-29T19:56:35.484Z,-1.96
2018-11-29T19:59:06.178Z,-1.98
2018-11-29T20:01:36.851Z,-1.94
2018-11-29T20:04:07.162Z,-2.03
2018-11-29T20:06:37.703Z,-1.96
2018-11-29T20:09:08.624Z,-2.00
2018-11-29T20:11:39.017Z,-1.98
2018-11-29T20:14:09.559Z,-1.92
2018-11-29T20:16:39.985Z,-1.99
2018-11-29T20:19:11.041Z,-1.99
2018-11-29T20:21:41.607Z,-1.97
2018-11-29T20:24:12.272Z,-2.02
2018-11-29T20:26:42.998Z,-2.03
2018-11-29T20:29:13.489Z,-2.06
2018-11-29T20:31:44.795Z,-2.08
2018-11-29T20:34:15.054Z,-2.09
2018-11-29T20:36:46.051Z,-2.11
2018-11-29T20:39:16.484Z,-2.13
2018-11-29T20:41:47.020Z,-2.02
2018-11-29T20:44:17.211Z,-2.07
2018-11-29T20:46:47.915Z,-2.14
2018-11-29T20:49:18.192Z,-2.05
2018-11-29T20:51:48.809Z,-2.01
2018-11-29T20:54:19.045Z,-2.10
2018-11-29T20:56:49.144Z,-2.12
2018-11-29T20:59:19.216Z,-2.11
2018-11-29T21:01:50.474Z,-2.14
2018-11-29T21:04:21.181Z,-2.16
2018-11-29T21:06:51.387Z,-2.08
2018-11-29T21:09:22.062Z,-2.13
2018-11-29T21:11:57.255Z,-2.18
2018-11-29T21:14:29.140Z,-2.16
2018-11-29T21:16:59.268Z,-2.19
2018-11-29T21:19:33.200Z,-2.15
2018-11-29T21:22:04.335Z,-2.19
2018-11-29T21:24:40.359Z,-2.19
2018-11-29T21:27:11.108Z,-2.21
2018-11-29T21:29:43.325Z,-2.30
2018-11-29T21:32:15.356Z,-2.28
2018-11-29T21:34:46.413Z,-2.29
2018-11-29T21:37:16.549Z,-2.36
2018-11-29T21:39:47.822Z,-2.36
2018-11-29T21:42:18.619Z,-2.38
2018-11-29T21:44:48.748Z,-2.40
2018-11-29T21:47:19.139Z,-2.33
2018-11-29T21:49:49.408Z,-2.38
2018-11-29T21:52:19.473Z,-2.40
2018-11-29T21:54:51.093Z,-2.41
2018-11-29T21:57:22.275Z,-2.48
2018-11-29T21:59:52.420Z,-2.48
2018-11-29T22:02:23.432Z,-2.53
2018-11-29T22:04:53.716Z,-2.50
2018-11-29T22:07:24.462Z,-2.51
2018-11-29T22:09:58.336Z,-2.54
2018-11-29T22:12:30.594Z,-2.56
2018-11-29T22:15:10.412Z,-2.53
2018-11-29T22:18:47.682Z,-2.52
2018-11-29T22:21:18.768Z,-2.61
2018-11-29T22:23:50.616Z,-2.60
2018-11-29T22:26:27.393Z,-2.56
2018-11-29T22:29:00.707Z,-2.57
2018-11-29T22:31:28.626Z,-2.59
2018-11-29T22:34:01.681Z,-2.66
2018-11-29T22:36:33.316Z,-2.68
2018-11-29T22:39:08.660Z,-2.69
2018-11-29T22:41:39.816Z,-2.77
2018-11-29T22:44:12.683Z,-2.78
2018-11-29T22:46:49.327Z,-2.76
2018-11-29T22:49:19.395Z,-2.78
2018-11-29T22:51:51.260Z,-2.76
2018-11-29T22:54:22.827Z,-2.79
2018-11-29T22:57:00.716Z,-2.79
2018-11-29T22:59:34.508Z,-2.77
2018-11-29T23:02:04.854Z,-2.78
2018-11-29T23:04:35.883Z,-2.81
2018-11-29T23:07:12.704Z,-2.83
2018-11-29T23:09:42.807Z,-2.84
2018-11-29T23:12:14.122Z,-2.81
2018-11-29T23:14:44.704Z,-2.90
2018-11-29T23:17:17.879Z,-2.83
2018-11-29T23:19:48.998Z,-2.90
2018-11-29T23:22:19.604Z,-2.84
2018-11-29T23:24:49.737Z,-2.85
2018-11-29T23:27:21.704Z,-2.89
2018-11-29T23:29:53.809Z,-2.86
2018-11-29T23:32:30.804Z,-2.88
2018-11-29T23:35:01.914Z,-2.95
2018-11-29T23:37:35.112Z,-2.93
2018-11-29T23:40:11.968Z,-2.92
2018-11-29T23:42:48.137Z,-2.96
2018-11-29T23:45:18.856Z,-2.94
2018-11-29T23:47:49.056Z,-3.01
2018-11-29T23:50:19.629Z,-2.93
2018-11-29T23:52:52.803Z,-2.99
2018-11-29T23:55:25.373Z,-3.00
2018-11-29T23:57:57.062Z,-3.02
